Time;durP1;ratioP1;P1;durP2;ratioP2;P2;SDS_P1;SDS_P2;PMS_P1;PMS_P2;Temp;Humidity;BMP_temperature;BMP_pressure;BME280_temperature;BME280_humidity;BME280_pressure;Samples;Min_cycle;Max_cycle;Signal;HPM_P1;HPM_P2
2022/05/09 00:06:03;;;;;;;6.6;9.7;;;;;;;-133;88.9;65220;;;;
2022/05/09 00:17:03;;;;;;;6.6;9.7;;;;;;;-133;89;65220;;;;
2022/05/09 00:27:03;;;;;;;6.6;9.7;;;;;;;-133;89.7;65220;;;;
2022/05/09 00:37:03;;;;;;;6.2;8.9;;;;;;;-133;89;65220;;;;
2022/05/09 00:47:03;;;;;;;6.2;8.9;;;;;;;-133;89.3;65220;;;;
2022/05/09 00:58:03;;;;;;;6.3;9.9;;;;;;;-133;88.1;65220;;;;
2022/05/09 01:08:03;;;;;;;6.3;9.9;;;;;;;-133;90.1;65220;;;;
2022/05/09 01:18:03;;;;;;;6.3;9.9;;;;;;;-133;90.9;65220;;;;
2022/05/09 01:29:03;;;;;;;6.1;8.6;;;;;;;-133;92.2;65220;;;;
2022/05/09 01:39:03;;;;;;;6.1;8.6;;;;;;;-133;92.8;65220;;;;
2022/05/09 01:50:03;;;;;;;6.1;8.6;;;;;;;-133;93.1;65220;;;;
2022/05/09 02:01:04;;;;;;;6;9.6;;;;;;;-133;92.7;65210;;;;
2022/05/09 02:11:03;;;;;;;6;9.6;;;;;;;-133;95;65220;;;;
2022/05/09 02:22:03;;;;;;;6;9.6;;;;;;;-133;94.1;65220;;;;
2022/05/09 02:33:03;;;;;;;7;9;;;;;;;-133;95.7;65210;;;;
2022/05/09 02:44:03;;;;;;;7;9;;;;;;;-133;96.7;65210;;;;
2022/05/09 02:54:03;;;;;;;7;9;;;;;;;-133;97;65210;;;;
2022/05/09 03:05:03;;;;;;;8.3;10.8;;;;;;;-133;98.3;65210;;;;
2022/05/09 03:15:03;;;;;;;8.3;10.8;;;;;;;-133;99.3;65210;;;;
2022/05/09 03:25:03;;;;;;;8.3;10.8;;;;;;;-133;98.7;65210;;;;
2022/05/09 03:36:03;;;;;;;9.4;11.4;;;;;;;-133;100;65210;;;;
2022/05/09 03:46:03;;;;;;;9.4;11.4;;;;;;;-133;100;65210;;;;
2022/05/09 03:57:03;;;;;;;9.4;11.4;;;;;;;-133;100;65210;;;;
2022/05/09 04:08:03;;;;;;;9.8;12.5;;;;;;;-133;100;65210;;;;
2022/05/09 04:19:03;;;;;;;9.8;12.5;;;;;;;-133;99.4;65220;;;;
2022/05/09 04:29:03;;;;;;;10.5;12.4;;;;;;;-133;99.3;65210;;;;
2022/05/09 04:40:03;;;;;;;10.5;12.4;;;;;;;-133;98.4;65210;;;;
2022/05/09 04:50:03;;;;;;;10.5;12.4;;;;;;;-133;96.6;65210;;;;
2022/05/09 05:01:03;;;;;;;9.5;12.4;;;;;;;-133;95.5;65210;;;;
2022/05/09 05:11:03;;;;;;;9.5;12.4;;;;;;;-133;93.4;65210;;;;
2022/05/09 05:22:03;;;;;;;9.5;12.4;;;;;;;-133;91.5;65220;;;;
2022/05/09 05:33:04;;;;;;;12.2;14.8;;;;;;;-133;89.3;65210;;;;
2022/05/09 05:43:03;;;;;;;12.2;14.8;;;;;;;-133;86.1;65210;;;;
2022/05/09 05:53:03;;;;;;;12.2;14.8;;;;;;;-133;82.2;65210;;;;
2022/05/09 06:03:04;;;;;;;8.4;11.9;;;;;;;-133;81.7;65210;;;;
2022/05/09 06:14:05;;;;;;;8.4;11.9;;;;;;;-133;82.1;65210;;;;
2022/05/09 06:25:03;;;;;;;8.4;11.9;;;;;;;-133;80.2;65210;;;;
2022/05/09 06:36:03;;;;;;;8.8;13.4;;;;;;;-133;79;65210;;;;
2022/05/09 06:46:03;;;;;;;8.8;13.4;;;;;;;-133;76.5;65210;;;;
2022/05/09 06:57:03;;;;;;;8.8;13.4;;;;;;;-133;74.5;65210;;;;
2022/05/09 07:07:03;;;;;;;7.7;12.9;;;;;;;-133;71.4;65210;;;;
2022/05/09 07:18:03;;;;;;;7.7;12.9;;;;;;;-133;70.4;65210;;;;
2022/05/09 07:29:04;;;;;;;6.6;10.2;;;;;;;-133;69.3;65210;;;;
2022/05/09 07:40:03;;;;;;;6.6;10.2;;;;;;;-133;66.5;65220;;;;
2022/05/09 07:50:03;;;;;;;6.6;10.2;;;;;;;-133;66.5;65220;;;;
2022/05/09 08:01:03;;;;;;;5.9;9.8;;;;;;;-133;65.8;65210;;;;
2022/05/09 08:11:03;;;;;;;5.9;9.8;;;;;;;-133;60.1;65220;;;;
2022/05/09 08:21:04;;;;;;;5.9;9.8;;;;;;;-133;58.4;65210;;;;
2022/05/09 08:32:03;;;;;;;5.6;9.8;;;;;;;-133;58;65210;;;;
2022/05/09 08:42:04;;;;;;;5.6;9.8;;;;;;;-133;58.6;65210;;;;
2022/05/09 08:53:03;;;;;;;5.6;9.8;;;;;;;-133;53.3;65210;;;;
2022/05/09 09:04:03;;;;;;;5.2;9.1;;;;;;;-133;54.7;65210;;;;
2022/05/09 09:15:03;;;;;;;5.2;9.1;;;;;;;-133;54.2;65210;;;;
2022/05/09 09:25:03;;;;;;;5.2;9.1;;;;;;;-133;52.6;65210;;;;
2022/05/09 09:35:03;;;;;;;2.7;5.6;;;;;;;-133;49;65210;;;;
2022/05/09 09:45:04;;;;;;;2.7;5.6;;;;;;;-133;48.6;65210;;;;
2022/05/09 09:55:03;;;;;;;2.7;5.6;;;;;;;-133;47.8;65210;;;;
2022/05/09 10:06:04;;;;;;;3.2;5.3;;;;;;;-133;46.7;65210;;;;
2022/05/09 10:17:03;;;;;;;3.2;5.3;;;;;;;-133;46.4;65210;;;;
2022/05/09 10:28:03;;;;;;;2.8;6.6;;;;;;;-133;44.2;65210;;;;
2022/05/09 10:39:03;;;;;;;2.8;6.6;;;;;;;-133;45.7;65210;;;;
2022/05/09 10:49:04;;;;;;;2.8;6.6;;;;;;;-133;48.7;65210;;;;
2022/05/09 11:00:03;;;;;;;3.6;7.1;;;;;;;-133;45.6;65210;;;;
2022/05/09 11:10:03;;;;;;;3.6;7.1;;;;;;;-133;44.6;65210;;;;
2022/05/09 11:20:03;;;;;;;3.6;7.1;;;;;;;-133;44;65210;;;;
2022/05/09 11:31:03;;;;;;;2.7;8.1;;;;;;;-133;46.2;65210;;;;
2022/05/09 11:43:27;;;;;;;2.7;8.1;;;;;;;-133;44;65210;;;;
2022/05/09 11:53:03;;;;;;;2.7;8.1;;;;;;;-133;45.6;65210;;;;
2022/05/09 12:03:05;;;;;;;2.7;7;;;;;;;-133;39.9;65210;;;;
2022/05/09 12:13:04;;;;;;;2.7;7;;;;;;;-133;43.3;65210;;;;
2022/05/09 12:23:03;;;;;;;2.7;7;;;;;;;-133;42.2;65210;;;;
2022/05/09 12:34:03;;;;;;;3.1;6.8;;;;;;;-133;41.6;65210;;;;
2022/05/09 12:45:03;;;;;;;3.1;6.8;;;;;;;-133;41.6;65220;;;;
2022/05/09 12:56:07;;;;;;;3.1;6.8;;;;;;;-133;40.8;65210;;;;
2022/05/09 13:05:04;;;;;;;2.7;6;;;;;;;-133;38.3;65210;;;;
2022/05/09 13:16:03;;;;;;;2.7;6;;;;;;;-133;37.5;65220;;;;
2022/05/09 13:27:03;;;;;;;2.7;6;;;;;;;-133;38.3;65220;;;;
2022/05/09 13:37:03;;;;;;;2.4;5.6;;;;;;;-133;37.8;65220;;;;
2022/05/09 13:48:03;;;;;;;2.4;5.6;;;;;;;-133;36.4;65220;;;;
2022/05/09 13:58:03;;;;;;;2.3;5.2;;;;;;;-133;37.3;65220;;;;
2022/05/09 14:09:03;;;;;;;2.3;5.2;;;;;;;-133;33.5;65220;;;;
2022/05/09 14:19:03;;;;;;;2.3;5.2;;;;;;;-133;33.8;65220;;;;
2022/05/09 14:30:03;;;;;;;2.5;8.2;;;;;;;-133;35.6;65220;;;;
2022/05/09 14:41:03;;;;;;;2.5;8.2;;;;;;;-133;35.6;65220;;;;
2022/05/09 14:52:03;;;;;;;2.5;8.2;;;;;;;-133;36.7;65220;;;;
2022/05/09 15:03:03;;;;;;;2.2;5.1;;;;;;;-133;35.4;65210;;;;
2022/05/09 15:14:03;;;;;;;2.2;5.1;;;;;;;-133;29.3;65220;;;;
2022/05/09 15:24:03;;;;;;;2.2;5.1;;;;;;;-133;29.6;65220;;;;
2022/05/09 15:34:03;;;;;;;3.1;10.4;;;;;;;-133;28;65210;;;;
2022/05/09 15:45:04;;;;;;;3.1;10.4;;;;;;;-133;27.5;65220;;;;
2022/05/09 15:55:03;;;;;;;3.1;10.4;;;;;;;-133;27.7;65220;;;;
2022/05/09 16:17:03;;;;;;;1.9;5;;;;;;;-133;34.4;65220;;;;
2022/05/09 16:28:04;;;;;;;2.5;5.8;;;;;;;-133;37.2;65220;;;;
2022/05/09 16:39:03;;;;;;;2.5;5.8;;;;;;;-133;37.6;65230;;;;
2022/05/09 16:49:03;;;;;;;2.5;5.8;;;;;;;-133;40.3;65230;;;;
2022/05/09 17:00:03;;;;;;;2.6;7.8;;;;;;;-133;41;65230;;;;
2022/05/09 17:10:03;;;;;;;2.6;7.8;;;;;;;-133;40.5;65230;;;;
2022/05/09 17:20:03;;;;;;;2.6;7.8;;;;;;;-133;41;65230;;;;
2022/05/09 17:31:03;;;;;;;2.8;8.9;;;;;;;-133;44.9;65230;;;;
2022/05/09 17:41:03;;;;;;;2.8;8.9;;;;;;;-133;45.4;65240;;;;
2022/05/09 17:52:03;;;;;;;2.8;8.9;;;;;;;-133;47.5;65230;;;;
2022/05/09 18:02:04;;;;;;;3;6.6;;;;;;;-133;49.6;65240;;;;
2022/05/09 18:12:03;;;;;;;3;6.6;;;;;;;-133;52.9;65240;;;;
2022/05/09 18:23:05;;;;;;;3;6.6;;;;;;;-133;55.5;65240;;;;
2022/05/09 18:33:03;;;;;;;9.5;17.2;;;;;;;-133;57.2;65240;;;;
2022/05/09 18:43:03;;;;;;;9.5;17.2;;;;;;;-133;58.5;65240;;;;
2022/05/09 18:53:03;;;;;;;9.5;17.2;;;;;;;-133;59.9;65240;;;;
2022/05/09 19:04:03;;;;;;;3.9;8.9;;;;;;;-133;60.5;65250;;;;
2022/05/09 19:15:03;;;;;;;3.9;8.9;;;;;;;-133;62.3;65240;;;;
2022/05/09 19:25:05;;;;;;;3.9;8.9;;;;;;;-133;65.2;65240;;;;
2022/05/09 19:35:04;;;;;;;5.8;8.8;;;;;;;-133;65.7;65250;;;;
2022/05/09 19:46:03;;;;;;;5.8;8.8;;;;;;;-133;65.3;65240;;;;
2022/05/09 19:57:03;;;;;;;5.8;8.8;;;;;;;-133;66.3;65240;;;;
2022/05/09 20:08:03;;;;;;;6.3;12.3;;;;;;;-133;65.9;65240;;;;
2022/05/09 20:18:03;;;;;;;6.3;12.3;;;;;;;-133;64.7;65250;;;;
2022/05/09 20:30:07;;;;;;;4.3;8.4;;;;;;;-133;65.2;65240;;;;
2022/05/09 20:39:03;;;;;;;4.3;8.4;;;;;;;-133;66;65250;;;;
2022/05/09 20:50:03;;;;;;;4.3;8.4;;;;;;;-133;67.1;65240;;;;
2022/05/09 21:01:05;;;;;;;3.6;7.1;;;;;;;-133;66.6;65240;;;;
2022/05/09 21:11:04;;;;;;;3.6;7.1;;;;;;;-133;66.9;65240;;;;
2022/05/09 21:22:03;;;;;;;3.6;7.1;;;;;;;-133;67.1;65240;;;;
2022/05/09 21:32:03;;;;;;;3.8;7.5;;;;;;;-133;68.2;65250;;;;
2022/05/09 21:43:03;;;;;;;3.8;7.5;;;;;;;-133;69.2;65250;;;;
2022/05/09 21:53:03;;;;;;;3.8;7.5;;;;;;;-133;70.1;65250;;;;
2022/05/09 22:03:03;;;;;;;4;8.4;;;;;;;-133;71.6;65250;;;;
2022/05/09 22:13:03;;;;;;;4;8.4;;;;;;;-133;73.7;65250;;;;
2022/05/09 22:23:03;;;;;;;4;8.4;;;;;;;-133;74.5;65250;;;;
2022/05/09 22:33:03;;;;;;;4.4;8.5;;;;;;;-133;74.3;65250;;;;
2022/05/09 22:43:03;;;;;;;4.4;8.5;;;;;;;-133;77.9;65240;;;;
2022/05/09 22:53:03;;;;;;;4.4;8.5;;;;;;;-133;77.8;65250;;;;
2022/05/09 23:04:03;;;;;;;6;10.8;;;;;;;-133;78.8;65250;;;;
2022/05/09 23:15:04;;;;;;;6;10.8;;;;;;;-133;80.8;65240;;;;
2022/05/09 23:25:03;;;;;;;6;10.8;;;;;;;-133;82.6;65250;;;;
2022/05/09 23:36:03;;;;;;;5.2;9.1;;;;;;;-133;82.2;65250;;;;
2022/05/09 23:46:03;;;;;;;5.2;9.1;;;;;;;-133;83.3;65250;;;;
2022/05/09 23:57:04;;;;;;;5.2;9.1;;;;;;;-133;84.3;65250;;;;
